CheckWX is a tool to help pilots better visualize weather data.  It is not intended as a substitute for an official pre-flight weather briefing.

17:52:29 UTC

KGLH METAR
Greenville Mid-Delta Airport
Greenville, Mississippi, USA
Current

59 mins ago

KGLH 061653Z 16007KT 10SM CLR 24/15 A3008 RMK AO2 SLP192 T02440150
Observed
Apr-6 @ 16:53 UTC
Wind
  • 160° at 7 KTS
Visibility
Flight Rules
VFR
Cloud Levels
  • Clear skies
Temperature
24°C / 75°F
Dewpoint
15°C / 59°F
Humidity
57%
Altimeter
30.08" Hg
Pressure
1018.62 hPa
Previous

2 hours ago

KGLH 061553Z 18003KT 10SM CLR 22/16 A3009 RMK AO2 SLP197 T02220156
Observed
Apr-6 @ 15:53 UTC
Wind
  • 180° at 3 KTS
Visibility
Flight Rules
VFR
Cloud Levels
  • Clear skies
Temperature
22°C / 72°F
Dewpoint
16°C / 61°F
Humidity
69%
Altimeter
30.09" Hg
Pressure
1018.92 hPa
Previous

3 hours ago

KGLH 061453Z 13003KT 10SM CLR 21/14 A3009 RMK AO2 SLP194 T02060139
Observed
Apr-6 @ 14:53 UTC
Wind
  • 130° at 3 KTS
Visibility
Flight Rules
VFR
Cloud Levels
  • Clear skies
Temperature
21°C / 70°F
Dewpoint
14°C / 57°F
Humidity
64%
Altimeter
30.09" Hg
Pressure
1018.92 hPa